sensor_id;sensor_type;location;lat;lon;timestamp;temperature;humidity
16643;DHT22;8435;52.184;5.406;2024-03-07T00:02:10;7.70;99.90
16643;DHT22;8435;52.184;5.406;2024-03-07T00:04:37;7.70;99.90
16643;DHT22;8435;52.184;5.406;2024-03-07T00:07:04;7.70;99.90
16643;DHT22;8435;52.184;5.406;2024-03-07T00:09:33;7.60;99.90
16643;DHT22;8435;52.184;5.406;2024-03-07T00:12:00;7.60;99.90
16643;DHT22;8435;52.184;5.406;2024-03-07T00:14:27;7.60;99.90
16643;DHT22;8435;52.184;5.406;2024-03-07T00:16:55;7.60;99.90
16643;DHT22;8435;52.184;5.406;2024-03-07T00:19:23;7.60;99.90
16643;DHT22;8435;52.184;5.406;2024-03-07T00:21:52;7.60;99.90
16643;DHT22;8435;52.184;5.406;2024-03-07T00:24:19;7.50;99.90
16643;DHT22;8435;52.184;5.406;2024-03-07T00:26:46;7.50;99.90
16643;DHT22;8435;52.184;5.406;2024-03-07T00:29:15;7.50;99.90
16643;DHT22;8435;52.184;5.406;2024-03-07T00:31:43;7.50;99.90
16643;DHT22;8435;52.184;5.406;2024-03-07T00:34:11;7.50;99.90
16643;DHT22;8435;52.184;5.406;2024-03-07T00:36:40;7.50;99.90
16643;DHT22;8435;52.184;5.406;2024-03-07T00:39:07;7.50;99.90
16643;DHT22;8435;52.184;5.406;2024-03-07T00:41:37;7.40;99.90
16643;DHT22;8435;52.184;5.406;2024-03-07T00:44:04;7.40;99.90
16643;DHT22;8435;52.184;5.406;2024-03-07T00:46:31;7.40;99.90
16643;DHT22;8435;52.184;5.406;2024-03-07T00:48:58;7.30;99.90
16643;DHT22;8435;52.184;5.406;2024-03-07T00:51:25;7.40;99.90
16643;DHT22;8435;52.184;5.406;2024-03-07T00:53:54;7.30;99.90
16643;DHT22;8435;52.184;5.406;2024-03-07T00:56:21;7.30;99.90
16643;DHT22;8435;52.184;5.406;2024-03-07T00:58:48;7.30;99.90
16643;DHT22;8435;52.184;5.406;2024-03-07T01:01:15;7.30;99.90
16643;DHT22;8435;52.184;5.406;2024-03-07T01:03:42;7.30;99.90
16643;DHT22;8435;52.184;5.406;2024-03-07T01:06:09;7.30;99.90
16643;DHT22;8435;52.184;5.406;2024-03-07T01:08:36;7.30;99.90
16643;DHT22;8435;52.184;5.406;2024-03-07T01:11:05;7.20;99.90
16643;DHT22;8435;52.184;5.406;2024-03-07T01:13:35;7.20;99.90
16643;DHT22;8435;52.184;5.406;2024-03-07T01:16:02;7.10;99.90
16643;DHT22;8435;52.184;5.406;2024-03-07T01:18:29;7.10;99.90
16643;DHT22;8435;52.184;5.406;2024-03-07T01:20:57;7.20;99.90
16643;DHT22;8435;52.184;5.406;2024-03-07T01:23:24;7.10;99.90
16643;DHT22;8435;52.184;5.406;2024-03-07T01:25:50;7.10;99.90
16643;DHT22;8435;52.184;5.406;2024-03-07T01:28:19;7.10;99.90
16643;DHT22;8435;52.184;5.406;2024-03-07T01:30:45;7.10;99.90
16643;DHT22;8435;52.184;5.406;2024-03-07T01:33:12;7.00;99.90
16643;DHT22;8435;52.184;5.406;2024-03-07T01:35:39;7.00;99.90
16643;DHT22;8435;52.184;5.406;2024-03-07T01:38:06;7.00;99.90
16643;DHT22;8435;52.184;5.406;2024-03-07T01:40:34;7.00;99.90
16643;DHT22;8435;52.184;5.406;2024-03-07T01:43:01;7.00;99.90
16643;DHT22;8435;52.184;5.406;2024-03-07T01:45:29;6.90;99.90
16643;DHT22;8435;52.184;5.406;2024-03-07T01:47:56;7.00;99.90
16643;DHT22;8435;52.184;5.406;2024-03-07T01:50:23;6.90;99.90
16643;DHT22;8435;52.184;5.406;2024-03-07T01:52:50;6.90;99.90
16643;DHT22;8435;52.184;5.406;2024-03-07T01:55:21;6.90;99.90
16643;DHT22;8435;52.184;5.406;2024-03-07T01:57:48;6.90;99.90
16643;DHT22;8435;52.184;5.406;2024-03-07T02:00:15;6.90;99.90
16643;DHT22;8435;52.184;5.406;2024-03-07T02:02:45;6.80;99.90
16643;DHT22;8435;52.184;5.406;2024-03-07T02:05:12;6.80;99.90
16643;DHT22;8435;52.184;5.406;2024-03-07T02:07:39;6.80;99.90
16643;DHT22;8435;52.184;5.406;2024-03-07T02:10:06;6.80;99.90
16643;DHT22;8435;52.184;5.406;2024-03-07T02:12:34;6.80;99.90
16643;DHT22;8435;52.184;5.406;2024-03-07T02:15:01;6.80;99.90
16643;DHT22;8435;52.184;5.406;2024-03-07T02:17:29;6.80;99.90
16643;DHT22;8435;52.184;5.406;2024-03-07T02:19:57;6.80;99.90
16643;DHT22;8435;52.184;5.406;2024-03-07T02:22:26;6.70;99.90
16643;DHT22;8435;52.184;5.406;2024-03-07T02:24:53;6.70;99.90
16643;DHT22;8435;52.184;5.406;2024-03-07T02:27:20;6.70;99.90
16643;DHT22;8435;52.184;5.406;2024-03-07T02:29:47;6.70;99.90
16643;DHT22;8435;52.184;5.406;2024-03-07T02:32:14;6.70;99.90
16643;DHT22;8435;52.184;5.406;2024-03-07T02:34:41;6.70;99.90
16643;DHT22;8435;52.184;5.406;2024-03-07T02:37:09;6.70;99.90
16643;DHT22;8435;52.184;5.406;2024-03-07T02:39:37;6.60;99.90
16643;DHT22;8435;52.184;5.406;2024-03-07T02:42:04;6.70;99.90
16643;DHT22;8435;52.184;5.406;2024-03-07T02:44:31;6.70;99.90
16643;DHT22;8435;52.184;5.406;2024-03-07T02:46:58;6.60;99.90
16643;DHT22;8435;52.184;5.406;2024-03-07T02:49:28;6.70;99.90
16643;DHT22;8435;52.184;5.406;2024-03-07T02:51:55;6.60;99.90
16643;DHT22;8435;52.184;5.406;2024-03-07T02:54:22;6.60;99.90
16643;DHT22;8435;52.184;5.406;2024-03-07T02:56:50;6.60;99.90
16643;DHT22;8435;52.184;5.406;2024-03-07T02:59:17;6.60;99.90
16643;DHT22;8435;52.184;5.406;2024-03-07T03:01:44;6.60;99.90
16643;DHT22;8435;52.184;5.406;2024-03-07T03:04:11;6.70;99.90
16643;DHT22;8435;52.184;5.406;2024-03-07T03:06:38;6.60;99.90
16643;DHT22;8435;52.184;5.406;2024-03-07T03:09:05;6.60;99.90
16643;DHT22;8435;52.184;5.406;2024-03-07T03:11:32;6.60;99.90
16643;DHT22;8435;52.184;5.406;2024-03-07T03:14:00;6.50;99.90
16643;DHT22;8435;52.184;5.406;2024-03-07T03:16:27;6.60;99.90
16643;DHT22;8435;52.184;5.406;2024-03-07T03:18:54;6.60;99.90
16643;DHT22;8435;52.184;5.406;2024-03-07T03:21:21;6.50;99.90
16643;DHT22;8435;52.184;5.406;2024-03-07T03:23:48;6.50;99.90
16643;DHT22;8435;52.184;5.406;2024-03-07T03:26:15;6.50;99.90
16643;DHT22;8435;52.184;5.406;2024-03-07T03:28:42;6.50;99.90
16643;DHT22;8435;52.184;5.406;2024-03-07T03:31:10;6.40;99.90
16643;DHT22;8435;52.184;5.406;2024-03-07T03:33:40;6.40;99.90
16643;DHT22;8435;52.184;5.406;2024-03-07T03:36:07;6.40;99.90
16643;DHT22;8435;52.184;5.406;2024-03-07T03:38:34;6.40;99.90
16643;DHT22;8435;52.184;5.406;2024-03-07T03:41:02;6.30;99.90
16643;DHT22;8435;52.184;5.406;2024-03-07T03:43:30;6.30;99.90
16643;DHT22;8435;52.184;5.406;2024-03-07T03:45:57;6.30;99.90
16643;DHT22;8435;52.184;5.406;2024-03-07T03:48:25;6.30;99.90
16643;DHT22;8435;52.184;5.406;2024-03-07T03:50:52;6.60;99.90
16643;DHT22;8435;52.184;5.406;2024-03-07T03:53:19;6.30;99.90
16643;DHT22;8435;52.184;5.406;2024-03-07T03:55:46;6.20;99.90
16643;DHT22;8435;52.184;5.406;2024-03-07T03:58:14;6.20;99.90
16643;DHT22;8435;52.184;5.406;2024-03-07T04:00:42;6.20;99.90
16643;DHT22;8435;52.184;5.406;2024-03-07T04:03:09;6.10;99.90
16643;DHT22;8435;52.184;5.406;2024-03-07T04:05:37;6.10;99.90
16643;DHT22;8435;52.184;5.406;2024-03-07T04:08:04;6.10;99.90
16643;DHT22;8435;52.184;5.406;2024-03-07T04:10:31;6.10;99.90
16643;DHT22;8435;52.184;5.406;2024-03-07T04:12:57;6.10;99.90
16643;DHT22;8435;52.184;5.406;2024-03-07T04:15:24;6.00;99.90
16643;DHT22;8435;52.184;5.406;2024-03-07T04:17:52;6.00;99.90
16643;DHT22;8435;52.184;5.406;2024-03-07T04:20:19;6.00;99.90
16643;DHT22;8435;52.184;5.406;2024-03-07T04:22:47;6.00;99.90
16643;DHT22;8435;52.184;5.406;2024-03-07T04:25:16;6.00;99.90
16643;DHT22;8435;52.184;5.406;2024-03-07T04:27:43;6.00;99.90
16643;DHT22;8435;52.184;5.406;2024-03-07T04:30:10;5.90;99.90
16643;DHT22;8435;52.184;5.406;2024-03-07T04:32:37;5.90;99.90
16643;DHT22;8435;52.184;5.406;2024-03-07T04:35:05;6.00;99.90
16643;DHT22;8435;52.184;5.406;2024-03-07T04:37:33;5.90;99.90
16643;DHT22;8435;52.184;5.406;2024-03-07T04:40:04;5.90;99.90
16643;DHT22;8435;52.184;5.406;2024-03-07T04:42:40;5.90;99.90
16643;DHT22;8435;52.184;5.406;2024-03-07T04:45:08;5.90;99.90
16643;DHT22;8435;52.184;5.406;2024-03-07T04:47:37;5.90;99.90
16643;DHT22;8435;52.184;5.406;2024-03-07T04:50:05;5.90;99.90
16643;DHT22;8435;52.184;5.406;2024-03-07T04:52:32;5.80;99.90
16643;DHT22;8435;52.184;5.406;2024-03-07T04:55:00;5.80;99.90
16643;DHT22;8435;52.184;5.406;2024-03-07T04:57:28;5.80;99.90
16643;DHT22;8435;52.184;5.406;2024-03-07T04:59:55;5.80;99.90
16643;DHT22;8435;52.184;5.406;2024-03-07T05:02:22;5.80;99.90
16643;DHT22;8435;52.184;5.406;2024-03-07T05:04:49;5.80;99.90
16643;DHT22;8435;52.184;5.406;2024-03-07T05:07:17;5.70;99.90
16643;DHT22;8435;52.184;5.406;2024-03-07T05:09:44;5.70;99.90
16643;DHT22;8435;52.184;5.406;2024-03-07T05:12:11;5.80;99.90
16643;DHT22;8435;52.184;5.406;2024-03-07T05:14:40;5.70;99.90
16643;DHT22;8435;52.184;5.406;2024-03-07T05:17:07;5.70;99.90
16643;DHT22;8435;52.184;5.406;2024-03-07T05:19:35;5.70;99.90
16643;DHT22;8435;52.184;5.406;2024-03-07T05:22:02;5.70;99.90
16643;DHT22;8435;52.184;5.406;2024-03-07T05:24:30;5.70;99.90
16643;DHT22;8435;52.184;5.406;2024-03-07T05:26:58;5.60;99.90
16643;DHT22;8435;52.184;5.406;2024-03-07T05:29:25;5.70;99.90
16643;DHT22;8435;52.184;5.406;2024-03-07T05:31:54;5.70;99.90
16643;DHT22;8435;52.184;5.406;2024-03-07T05:34:20;5.60;99.90
16643;DHT22;8435;52.184;5.406;2024-03-07T05:36:49;5.60;99.90
16643;DHT22;8435;52.184;5.406;2024-03-07T05:39:16;5.70;99.90
16643;DHT22;8435;52.184;5.406;2024-03-07T05:41:44;5.60;99.90
16643;DHT22;8435;52.184;5.406;2024-03-07T05:44:12;5.60;99.90
16643;DHT22;8435;52.184;5.406;2024-03-07T05:46:39;5.60;99.90
16643;DHT22;8435;52.184;5.406;2024-03-07T05:49:13;5.60;99.90
16643;DHT22;8435;52.184;5.406;2024-03-07T05:51:40;5.60;99.90
16643;DHT22;8435;52.184;5.406;2024-03-07T05:54:10;5.60;99.90
16643;DHT22;8435;52.184;5.406;2024-03-07T05:56:39;5.50;99.90
16643;DHT22;8435;52.184;5.406;2024-03-07T05:59:06;5.60;99.90
16643;DHT22;8435;52.184;5.406;2024-03-07T06:01:35;5.50;99.90
16643;DHT22;8435;52.184;5.406;2024-03-07T06:04:03;5.60;99.90
16643;DHT22;8435;52.184;5.406;2024-03-07T06:06:33;5.50;99.90
16643;DHT22;8435;52.184;5.406;2024-03-07T06:09:00;5.50;99.90
16643;DHT22;8435;52.184;5.406;2024-03-07T06:11:28;5.50;99.90
16643;DHT22;8435;52.184;5.406;2024-03-07T06:13:54;5.50;99.90
16643;DHT22;8435;52.184;5.406;2024-03-07T06:16:22;5.60;99.90
16643;DHT22;8435;52.184;5.406;2024-03-07T06:18:49;5.50;99.90
16643;DHT22;8435;52.184;5.406;2024-03-07T06:21:17;5.50;99.90
16643;DHT22;8435;52.184;5.406;2024-03-07T06:23:46;5.50;99.90
16643;DHT22;8435;52.184;5.406;2024-03-07T06:26:14;5.50;99.90
16643;DHT22;8435;52.184;5.406;2024-03-07T06:28:42;5.50;99.90
16643;DHT22;8435;52.184;5.406;2024-03-07T06:31:10;5.50;99.90
16643;DHT22;8435;52.184;5.406;2024-03-07T06:33:37;5.50;99.90
16643;DHT22;8435;52.184;5.406;2024-03-07T06:36:05;5.50;99.90
16643;DHT22;8435;52.184;5.406;2024-03-07T06:38:31;5.50;99.90
16643;DHT22;8435;52.184;5.406;2024-03-07T06:41:00;5.60;99.90
16643;DHT22;8435;52.184;5.406;2024-03-07T06:43:26;5.60;99.90
16643;DHT22;8435;52.184;5.406;2024-03-07T06:45:55;5.60;99.90
16643;DHT22;8435;52.184;5.406;2024-03-07T06:48:22;5.60;99.90
16643;DHT22;8435;52.184;5.406;2024-03-07T06:50:48;5.60;99.90
16643;DHT22;8435;52.184;5.406;2024-03-07T06:53:16;5.70;99.90
16643;DHT22;8435;52.184;5.406;2024-03-07T06:55:43;5.70;99.90
16643;DHT22;8435;52.184;5.406;2024-03-07T06:58:11;5.70;99.90
16643;DHT22;8435;52.184;5.406;2024-03-07T07:00:38;5.80;99.90
16643;DHT22;8435;52.184;5.406;2024-03-07T07:03:05;5.80;99.90
16643;DHT22;8435;52.184;5.406;2024-03-07T07:05:32;5.80;99.90
16643;DHT22;8435;52.184;5.406;2024-03-07T07:07:59;5.80;99.90
16643;DHT22;8435;52.184;5.406;2024-03-07T07:10:26;5.90;99.90
16643;DHT22;8435;52.184;5.406;2024-03-07T07:12:53;5.90;99.90
16643;DHT22;8435;52.184;5.406;2024-03-07T07:15:21;6.00;99.90
16643;DHT22;8435;52.184;5.406;2024-03-07T07:17:49;6.00;99.90
16643;DHT22;8435;52.184;5.406;2024-03-07T07:20:16;6.10;99.90
16643;DHT22;8435;52.184;5.406;2024-03-07T07:22:45;6.20;99.90
16643;DHT22;8435;52.184;5.406;2024-03-07T07:25:13;6.30;99.90
16643;DHT22;8435;52.184;5.406;2024-03-07T07:27:41;6.50;99.90
16643;DHT22;8435;52.184;5.406;2024-03-07T07:30:09;6.60;99.90
16643;DHT22;8435;52.184;5.406;2024-03-07T07:32:38;6.70;99.90
16643;DHT22;8435;52.184;5.406;2024-03-07T07:35:06;6.90;99.90
16643;DHT22;8435;52.184;5.406;2024-03-07T07:37:37;7.00;99.90
16643;DHT22;8435;52.184;5.406;2024-03-07T07:40:04;7.10;99.90
16643;DHT22;8435;52.184;5.406;2024-03-07T07:42:34;7.20;99.90
16643;DHT22;8435;52.184;5.406;2024-03-07T07:45:05;7.30;99.90
16643;DHT22;8435;52.184;5.406;2024-03-07T07:47:32;7.40;99.90
16643;DHT22;8435;52.184;5.406;2024-03-07T07:50:05;7.50;99.90
16643;DHT22;8435;52.184;5.406;2024-03-07T07:52:40;7.70;99.90
16643;DHT22;8435;52.184;5.406;2024-03-07T07:55:07;7.80;99.90
16643;DHT22;8435;52.184;5.406;2024-03-07T07:57:43;7.90;99.90
16643;DHT22;8435;52.184;5.406;2024-03-07T08:00:12;8.10;99.90
16643;DHT22;8435;52.184;5.406;2024-03-07T08:02:49;8.30;99.90
16643;DHT22;8435;52.184;5.406;2024-03-07T08:05:17;8.50;99.90
16643;DHT22;8435;52.184;5.406;2024-03-07T08:07:45;8.70;99.90
16643;DHT22;8435;52.184;5.406;2024-03-07T08:10:13;8.90;99.90
16643;DHT22;8435;52.184;5.406;2024-03-07T08:12:40;9.20;99.90
16643;DHT22;8435;52.184;5.406;2024-03-07T08:15:09;9.40;99.90
16643;DHT22;8435;52.184;5.406;2024-03-07T08:17:40;9.60;99.90
16643;DHT22;8435;52.184;5.406;2024-03-07T08:20:10;9.80;99.90
16643;DHT22;8435;52.184;5.406;2024-03-07T08:22:38;10.00;99.90
16643;DHT22;8435;52.184;5.406;2024-03-07T08:25:07;10.10;99.90
16643;DHT22;8435;52.184;5.406;2024-03-07T08:27:34;10.30;99.90
16643;DHT22;8435;52.184;5.406;2024-03-07T08:30:01;10.40;99.90
16643;DHT22;8435;52.184;5.406;2024-03-07T08:32:29;10.50;99.90
16643;DHT22;8435;52.184;5.406;2024-03-07T08:34:55;10.70;99.90
16643;DHT22;8435;52.184;5.406;2024-03-07T08:37:22;10.80;99.90
16643;DHT22;8435;52.184;5.406;2024-03-07T08:39:50;11.00;99.90
16643;DHT22;8435;52.184;5.406;2024-03-07T08:42:18;11.00;99.90
16643;DHT22;8435;52.184;5.406;2024-03-07T08:44:45;11.10;99.90
16643;DHT22;8435;52.184;5.406;2024-03-07T08:47:12;11.10;99.90
16643;DHT22;8435;52.184;5.406;2024-03-07T08:49:38;11.00;99.90
16643;DHT22;8435;52.184;5.406;2024-03-07T08:52:06;11.20;99.90
16643;DHT22;8435;52.184;5.406;2024-03-07T08:54:34;11.20;99.90
16643;DHT22;8435;52.184;5.406;2024-03-07T08:57:02;11.30;99.90
16643;DHT22;8435;52.184;5.406;2024-03-07T08:59:30;11.40;99.90
16643;DHT22;8435;52.184;5.406;2024-03-07T09:01:59;11.40;99.90
16643;DHT22;8435;52.184;5.406;2024-03-07T09:04:27;11.50;99.90
16643;DHT22;8435;52.184;5.406;2024-03-07T09:06:56;11.50;99.40
16643;DHT22;8435;52.184;5.406;2024-03-07T09:09:23;11.60;99.30
16643;DHT22;8435;52.184;5.406;2024-03-07T09:11:50;11.60;99.10
16643;DHT22;8435;52.184;5.406;2024-03-07T09:14:18;11.70;98.90
16643;DHT22;8435;52.184;5.406;2024-03-07T09:16:46;11.70;98.90
16643;DHT22;8435;52.184;5.406;2024-03-07T09:19:14;11.70;98.60
16643;DHT22;8435;52.184;5.406;2024-03-07T09:21:45;11.80;98.80
16643;DHT22;8435;52.184;5.406;2024-03-07T09:24:12;11.90;99.30
16643;DHT22;8435;52.184;5.406;2024-03-07T09:26:40;12.00;98.90
16643;DHT22;8435;52.184;5.406;2024-03-07T09:29:07;12.00;98.70
16643;DHT22;8435;52.184;5.406;2024-03-07T09:31:37;12.10;98.60
16643;DHT22;8435;52.184;5.406;2024-03-07T09:34:05;12.10;98.00
16643;DHT22;8435;52.184;5.406;2024-03-07T09:36:34;11.90;97.60
16643;DHT22;8435;52.184;5.406;2024-03-07T09:39:01;11.90;97.90
16643;DHT22;8435;52.184;5.406;2024-03-07T09:41:27;11.70;97.50
16643;DHT22;8435;52.184;5.406;2024-03-07T09:43:55;11.60;97.50
16643;DHT22;8435;52.184;5.406;2024-03-07T09:46:23;11.50;97.40
16643;DHT22;8435;52.184;5.406;2024-03-07T09:48:51;11.40;98.00
16643;DHT22;8435;52.184;5.406;2024-03-07T09:51:20;11.30;97.80
16643;DHT22;8435;52.184;5.406;2024-03-07T09:53:49;11.20;98.00
16643;DHT22;8435;52.184;5.406;2024-03-07T09:56:19;11.10;98.30
16643;DHT22;8435;52.184;5.406;2024-03-07T09:58:49;11.10;98.50
16643;DHT22;8435;52.184;5.406;2024-03-07T10:01:20;11.00;98.20
16643;DHT22;8435;52.184;5.406;2024-03-07T10:03:47;10.90;97.90
16643;DHT22;8435;52.184;5.406;2024-03-07T10:06:16;11.00;98.50
16643;DHT22;8435;52.184;5.406;2024-03-07T10:08:43;11.00;98.30
16643;DHT22;8435;52.184;5.406;2024-03-07T10:11:10;11.00;98.60
16643;DHT22;8435;52.184;5.406;2024-03-07T10:13:39;11.00;98.10
16643;DHT22;8435;52.184;5.406;2024-03-07T10:16:07;11.00;98.40
16643;DHT22;8435;52.184;5.406;2024-03-07T10:18:41;10.90;97.40
16643;DHT22;8435;52.184;5.406;2024-03-07T10:21:08;10.90;97.40
16643;DHT22;8435;52.184;5.406;2024-03-07T10:23:38;10.90;98.00
16643;DHT22;8435;52.184;5.406;2024-03-07T10:26:05;10.90;97.90
16643;DHT22;8435;52.184;5.406;2024-03-07T10:28:34;11.00;98.20
16643;DHT22;8435;52.184;5.406;2024-03-07T10:31:02;10.90;98.30
16643;DHT22;8435;52.184;5.406;2024-03-07T10:33:36;11.00;97.60
16643;DHT22;8435;52.184;5.406;2024-03-07T10:36:05;11.00;97.80
16643;DHT22;8435;52.184;5.406;2024-03-07T10:38:35;11.00;98.00
16643;DHT22;8435;52.184;5.406;2024-03-07T10:41:06;11.10;97.00
16643;DHT22;8435;52.184;5.406;2024-03-07T10:43:36;11.10;97.10
16643;DHT22;8435;52.184;5.406;2024-03-07T10:46:09;11.10;97.20
16643;DHT22;8435;52.184;5.406;2024-03-07T10:48:39;11.10;97.70
16643;DHT22;8435;52.184;5.406;2024-03-07T10:51:12;11.10;97.50
16643;DHT22;8435;52.184;5.406;2024-03-07T10:53:45;11.20;97.30
16643;DHT22;8435;52.184;5.406;2024-03-07T10:56:26;11.20;96.40
16643;DHT22;8435;52.184;5.406;2024-03-07T10:59:01;11.10;95.70
16643;DHT22;8435;52.184;5.406;2024-03-07T11:01:31;11.20;96.20
16643;DHT22;8435;52.184;5.406;2024-03-07T11:04:00;11.20;97.20
16643;DHT22;8435;52.184;5.406;2024-03-07T11:06:30;11.20;97.10
16643;DHT22;8435;52.184;5.406;2024-03-07T11:09:00;11.20;96.60
16643;DHT22;8435;52.184;5.406;2024-03-07T11:11:31;11.30;96.50
16643;DHT22;8435;52.184;5.406;2024-03-07T11:13:58;11.20;96.80
16643;DHT22;8435;52.184;5.406;2024-03-07T11:16:25;11.30;97.10
16643;DHT22;8435;52.184;5.406;2024-03-07T11:19:26;11.30;96.70
16643;DHT22;8435;52.184;5.406;2024-03-07T11:21:54;11.40;95.40
16643;DHT22;8435;52.184;5.406;2024-03-07T11:24:28;11.40;96.10
16643;DHT22;8435;52.184;5.406;2024-03-07T11:27:02;11.40;95.50
16643;DHT22;8435;52.184;5.406;2024-03-07T11:29:44;11.40;96.00
16643;DHT22;8435;52.184;5.406;2024-03-07T11:32:14;11.40;95.80
16643;DHT22;8435;52.184;5.406;2024-03-07T11:34:42;11.40;96.30
16643;DHT22;8435;52.184;5.406;2024-03-07T11:37:16;11.40;96.40
16643;DHT22;8435;52.184;5.406;2024-03-07T11:39:48;11.40;96.10
16643;DHT22;8435;52.184;5.406;2024-03-07T11:42:22;11.40;96.50
16643;DHT22;8435;52.184;5.406;2024-03-07T11:44:51;11.40;95.80
16643;DHT22;8435;52.184;5.406;2024-03-07T11:47:18;11.40;96.20
16643;DHT22;8435;52.184;5.406;2024-03-07T11:49:45;11.50;95.90
16643;DHT22;8435;52.184;5.406;2024-03-07T11:52:14;11.50;96.20
16643;DHT22;8435;52.184;5.406;2024-03-07T11:54:42;11.50;95.80
16643;DHT22;8435;52.184;5.406;2024-03-07T11:57:13;11.50;96.40
16643;DHT22;8435;52.184;5.406;2024-03-07T11:59:41;11.60;96.50
16643;DHT22;8435;52.184;5.406;2024-03-07T12:02:12;11.60;96.10
16643;DHT22;8435;52.184;5.406;2024-03-07T12:04:40;11.60;95.70
16643;DHT22;8435;52.184;5.406;2024-03-07T12:07:07;11.60;95.70
16643;DHT22;8435;52.184;5.406;2024-03-07T12:09:37;11.70;95.50
16643;DHT22;8435;52.184;5.406;2024-03-07T12:12:05;11.70;95.50
16643;DHT22;8435;52.184;5.406;2024-03-07T12:14:32;11.80;95.60
16643;DHT22;8435;52.184;5.406;2024-03-07T12:17:01;11.80;95.70
16643;DHT22;8435;52.184;5.406;2024-03-07T12:19:30;11.90;95.90
16643;DHT22;8435;52.184;5.406;2024-03-07T12:22:00;11.90;95.80
16643;DHT22;8435;52.184;5.406;2024-03-07T12:24:27;12.00;96.20
16643;DHT22;8435;52.184;5.406;2024-03-07T12:27:04;12.10;96.30
16643;DHT22;8435;52.184;5.406;2024-03-07T12:29:31;12.10;94.40
16643;DHT22;8435;52.184;5.406;2024-03-07T12:31:59;12.20;94.80
16643;DHT22;8435;52.184;5.406;2024-03-07T12:34:27;12.10;93.60
16643;DHT22;8435;52.184;5.406;2024-03-07T12:36:56;12.10;94.30
16643;DHT22;8435;52.184;5.406;2024-03-07T12:39:23;12.10;94.40
16643;DHT22;8435;52.184;5.406;2024-03-07T12:41:56;12.00;94.20
16643;DHT22;8435;52.184;5.406;2024-03-07T12:44:23;12.00;94.60
16643;DHT22;8435;52.184;5.406;2024-03-07T12:46:51;12.00;94.80
16643;DHT22;8435;52.184;5.406;2024-03-07T12:49:21;11.80;94.10
16643;DHT22;8435;52.184;5.406;2024-03-07T12:51:54;12.00;94.90
16643;DHT22;8435;52.184;5.406;2024-03-07T12:54:21;12.00;95.00
16643;DHT22;8435;52.184;5.406;2024-03-07T12:56:48;12.10;95.20
16643;DHT22;8435;52.184;5.406;2024-03-07T12:59:16;12.10;95.10
16643;DHT22;8435;52.184;5.406;2024-03-07T13:01:44;12.10;94.80
16643;DHT22;8435;52.184;5.406;2024-03-07T13:04:13;12.10;94.70
16643;DHT22;8435;52.184;5.406;2024-03-07T13:06:41;12.20;94.50
16643;DHT22;8435;52.184;5.406;2024-03-07T13:09:10;12.20;94.30
16643;DHT22;8435;52.184;5.406;2024-03-07T13:11:38;12.20;94.60
16643;DHT22;8435;52.184;5.406;2024-03-07T13:14:06;12.20;94.20
16643;DHT22;8435;52.184;5.406;2024-03-07T13:16:33;12.20;94.30
16643;DHT22;8435;52.184;5.406;2024-03-07T13:19:00;12.10;94.60
16643;DHT22;8435;52.184;5.406;2024-03-07T13:21:29;12.10;95.00
16643;DHT22;8435;52.184;5.406;2024-03-07T13:23:57;12.10;94.70
16643;DHT22;8435;52.184;5.406;2024-03-07T13:26:28;12.10;94.60
16643;DHT22;8435;52.184;5.406;2024-03-07T13:28:55;12.10;95.10
16643;DHT22;8435;52.184;5.406;2024-03-07T13:31:26;12.10;95.00
16643;DHT22;8435;52.184;5.406;2024-03-07T13:33:53;12.00;94.50
16643;DHT22;8435;52.184;5.406;2024-03-07T13:36:20;12.00;94.70
16643;DHT22;8435;52.184;5.406;2024-03-07T13:38:48;12.00;95.00
16643;DHT22;8435;52.184;5.406;2024-03-07T13:41:18;12.00;94.80
16643;DHT22;8435;52.184;5.406;2024-03-07T13:43:47;12.00;95.10
16643;DHT22;8435;52.184;5.406;2024-03-07T13:46:14;11.90;95.10
16643;DHT22;8435;52.184;5.406;2024-03-07T13:48:43;11.90;95.60
16643;DHT22;8435;52.184;5.406;2024-03-07T13:51:10;11.90;95.70
16643;DHT22;8435;52.184;5.406;2024-03-07T13:53:41;11.90;95.90
16643;DHT22;8435;52.184;5.406;2024-03-07T13:56:46;11.90;95.80
16643;DHT22;8435;52.184;5.406;2024-03-07T13:59:47;11.90;95.60
16643;DHT22;8435;52.184;5.406;2024-03-07T14:02:37;11.90;96.50
16643;DHT22;8435;52.184;5.406;2024-03-07T14:05:34;12.00;96.60
16643;DHT22;8435;52.184;5.406;2024-03-07T14:08:25;12.00;96.20
16643;DHT22;8435;52.184;5.406;2024-03-07T14:14:44;12.10;96.30
16643;DHT22;8435;52.184;5.406;2024-03-07T14:17:42;12.10;96.70
16643;DHT22;8435;52.184;5.406;2024-03-07T14:20:57;12.10;96.20
16643;DHT22;8435;52.184;5.406;2024-03-07T14:23:41;12.10;96.50
16643;DHT22;8435;52.184;5.406;2024-03-07T14:26:52;12.00;96.50
16643;DHT22;8435;52.184;5.406;2024-03-07T14:29:37;12.10;96.50
16643;DHT22;8435;52.184;5.406;2024-03-07T14:32:05;12.10;96.90
16643;DHT22;8435;52.184;5.406;2024-03-07T14:34:47;12.00;96.70
16643;DHT22;8435;52.184;5.406;2024-03-07T14:37:20;11.90;96.70
16643;DHT22;8435;52.184;5.406;2024-03-07T14:39:50;11.80;96.70
16643;DHT22;8435;52.184;5.406;2024-03-07T14:42:18;11.80;97.00
16643;DHT22;8435;52.184;5.406;2024-03-07T14:44:45;11.70;97.00
16643;DHT22;8435;52.184;5.406;2024-03-07T14:47:16;11.70;97.30
16643;DHT22;8435;52.184;5.406;2024-03-07T14:49:46;11.60;97.50
16643;DHT22;8435;52.184;5.406;2024-03-07T14:52:13;11.60;97.60
16643;DHT22;8435;52.184;5.406;2024-03-07T14:54:41;11.60;97.50
16643;DHT22;8435;52.184;5.406;2024-03-07T14:57:08;11.60;97.60
16643;DHT22;8435;52.184;5.406;2024-03-07T14:59:36;11.60;97.70
16643;DHT22;8435;52.184;5.406;2024-03-07T15:02:03;11.50;97.70
16643;DHT22;8435;52.184;5.406;2024-03-07T15:04:36;11.50;97.70
16643;DHT22;8435;52.184;5.406;2024-03-07T15:07:05;11.50;97.90
16643;DHT22;8435;52.184;5.406;2024-03-07T15:09:35;11.50;98.00
16643;DHT22;8435;52.184;5.406;2024-03-07T15:12:04;11.50;97.80
16643;DHT22;8435;52.184;5.406;2024-03-07T15:14:32;11.50;97.70
16643;DHT22;8435;52.184;5.406;2024-03-07T15:16:59;11.60;97.50
16643;DHT22;8435;52.184;5.406;2024-03-07T15:19:26;11.60;97.70
16643;DHT22;8435;52.184;5.406;2024-03-07T15:21:55;11.50;97.40
16643;DHT22;8435;52.184;5.406;2024-03-07T15:24:23;11.50;97.40
16643;DHT22;8435;52.184;5.406;2024-03-07T15:26:50;11.50;97.40
16643;DHT22;8435;52.184;5.406;2024-03-07T15:29:17;11.50;97.40
16643;DHT22;8435;52.184;5.406;2024-03-07T15:31:47;11.50;97.40
16643;DHT22;8435;52.184;5.406;2024-03-07T15:34:14;11.50;97.60
16643;DHT22;8435;52.184;5.406;2024-03-07T15:36:42;11.40;97.60
16643;DHT22;8435;52.184;5.406;2024-03-07T15:39:09;11.40;97.80
16643;DHT22;8435;52.184;5.406;2024-03-07T15:41:46;11.40;97.70
16643;DHT22;8435;52.184;5.406;2024-03-07T15:44:14;11.40;97.60
16643;DHT22;8435;52.184;5.406;2024-03-07T15:46:41;11.30;97.40
16643;DHT22;8435;52.184;5.406;2024-03-07T15:49:10;11.30;97.60
16643;DHT22;8435;52.184;5.406;2024-03-07T15:51:38;11.30;97.40
16643;DHT22;8435;52.184;5.406;2024-03-07T15:54:05;11.20;97.40
16643;DHT22;8435;52.184;5.406;2024-03-07T15:56:32;11.20;97.60
16643;DHT22;8435;52.184;5.406;2024-03-07T15:59:00;11.20;97.40
16643;DHT22;8435;52.184;5.406;2024-03-07T16:01:27;11.10;97.70
16643;DHT22;8435;52.184;5.406;2024-03-07T16:03:54;11.00;97.70
16643;DHT22;8435;52.184;5.406;2024-03-07T16:06:21;11.00;97.60
16643;DHT22;8435;52.184;5.406;2024-03-07T16:08:48;10.90;97.70
16643;DHT22;8435;52.184;5.406;2024-03-07T16:11:18;10.80;97.60